THY3LU LTFM-LIBD
Flight info
| Callsign | THY3LU |
|---|---|
| Flight time | N/A |
| Altitude | 36000 |
| Route | BARPE UM603 GOLDO DCT PINDO DCT PAPIZ P92 KAPPO L612 DOLON |
| Aircraft | A321/M-SDE3FGHIRWY/LB1 |
Departure
| Time | N/A |
|---|---|
| Airport | İstanbul Airport (LTFM) |
Arrival
| Time | 2026-04-26 23:16 |
|---|---|
| Airport | Bari Karol Wojtyła International Airport (LIBD) |
| Time | Latitude | Longitude | Altitude | Speed | Heading |
|---|---|---|---|---|---|
| 2026-04-26 23:02 | 40.97258 | 17.30198 | 15775 ft | 320 kts | 290° |
| 2026-04-26 23:02 | 40.98022 | 17.27489 | 15645 ft | 309 kts | 290° |
| 2026-04-26 23:03 | 40.98763 | 17.24869 | 15515 ft | 298 kts | 290° |
| 2026-04-26 23:03 | 40.99542 | 17.22369 | 15319 ft | 291 kts | 299° |
| 2026-04-26 23:03 | 41.00761 | 17.20283 | 15079 ft | 286 kts | 317° |
| 2026-04-26 23:03 | 41.02391 | 17.18804 | 14821 ft | 285 kts | 335° |
| 2026-04-26 23:04 | 41.04237 | 17.17862 | 14460 ft | 285 kts | 340° |
| 2026-04-26 23:04 | 41.06102 | 17.16958 | 14052 ft | 286 kts | 339° |
| 2026-04-26 23:04 | 41.07967 | 17.16076 | 13802 ft | 280 kts | 344° |
| 2026-04-26 23:04 | 41.09867 | 17.15971 | 13594 ft | 274 kts | 14° |
| 2026-04-26 23:05 | 41.11017 | 17.16623 | 13377 ft | 273 kts | 35° |
| 2026-04-26 23:05 | 41.12244 | 17.18493 | 13023 ft | 271 kts | 65° |
| 2026-04-26 23:05 | 41.12924 | 17.20829 | 12654 ft | 272 kts | 70° |
| 2026-04-26 23:05 | 41.13570 | 17.23190 | 12321 ft | 272 kts | 70° |
| 2026-04-26 23:06 | 41.14423 | 17.26298 | 11906 ft | 270 kts | 70° |
| 2026-04-26 23:06 | 41.15066 | 17.28631 | 11592 ft | 268 kts | 69° |
| 2026-04-26 23:06 | 41.15501 | 17.30199 | 11384 ft | 267 kts | 69° |
| 2026-04-26 23:06 | 41.16343 | 17.32368 | 11070 ft | 264 kts | 47° |
| 2026-04-26 23:07 | 41.17835 | 17.33712 | 10754 ft | 261 kts | 17° |
| 2026-04-26 23:07 | 41.19592 | 17.33860 | 10412 ft | 259 kts | 346° |
| 2026-04-26 23:07 | 41.21299 | 17.33097 | 10052 ft | 260 kts | 340° |
| 2026-04-26 23:07 | 41.22997 | 17.32264 | 9720 ft | 260 kts | 340° |
| 2026-04-26 23:08 | 41.24703 | 17.31427 | 9198 ft | 267 kts | 340° |
| 2026-04-26 23:08 | 41.26355 | 17.30199 | 8473 ft | 282 kts | 315° |
| 2026-04-26 23:08 | 41.27324 | 17.27939 | 7705 ft | 285 kts | 282° |
| 2026-04-26 23:08 | 41.27255 | 17.25354 | 7077 ft | 278 kts | 256° |
| 2026-04-26 23:09 | 41.26619 | 17.22997 | 6663 ft | 264 kts | 246° |
| 2026-04-26 23:09 | 41.25852 | 17.20849 | 6290 ft | 251 kts | 245° |
| 2026-04-26 23:09 | 41.25108 | 17.18812 | 5940 ft | 240 kts | 246° |
| 2026-04-26 23:09 | 41.24422 | 17.16821 | 5661 ft | 234 kts | 247° |
| 2026-04-26 23:10 | 41.23781 | 17.14838 | 5337 ft | 233 kts | 249° |
| 2026-04-26 23:10 | 41.23171 | 17.12845 | 4921 ft | 232 kts | 250° |
| 2026-04-26 23:10 | 41.22587 | 17.10860 | 4582 ft | 229 kts | 250° |
| 2026-04-26 23:10 | 41.22021 | 17.08893 | 4264 ft | 227 kts | 251° |
| 2026-04-26 23:11 | 41.21489 | 17.06933 | 3982 ft | 225 kts | 257° |
| 2026-04-26 23:11 | 41.21171 | 17.04896 | 3553 ft | 228 kts | 260° |
| 2026-04-26 23:11 | 41.20853 | 17.02798 | 2945 ft | 233 kts | 260° |
| 2026-04-26 23:11 | 41.20537 | 17.00736 | 2651 ft | 224 kts | 260° |
| 2026-04-26 23:12 | 41.20234 | 16.98807 | 2571 ft | 199 kts | 258° |
| 2026-04-26 23:12 | 41.19796 | 16.97154 | 2459 ft | 182 kts | 251° |
| 2026-04-26 23:12 | 41.19364 | 16.95641 | 2348 ft | 169 kts | 251° |
| 2026-04-26 23:12 | 41.18973 | 16.94253 | 2268 ft | 159 kts | 249° |
| 2026-04-26 23:13 | 41.18594 | 16.92898 | 2195 ft | 155 kts | 249° |
| 2026-04-26 23:13 | 41.18219 | 16.91560 | 2124 ft | 154 kts | 249° |
| 2026-04-26 23:13 | 41.17848 | 16.90233 | 2066 ft | 154 kts | 249° |
| 2026-04-26 23:13 | 41.17476 | 16.88905 | 1979 ft | 152 kts | 249° |
| 2026-04-26 23:14 | 41.17114 | 16.87605 | 1751 ft | 149 kts | 248° |
| 2026-04-26 23:14 | 41.16753 | 16.86321 | 1539 ft | 148 kts | 248° |
| 2026-04-26 23:14 | 41.16392 | 16.85037 | 1335 ft | 149 kts | 249° |
| 2026-04-26 23:14 | 41.16028 | 16.83752 | 1143 ft | 149 kts | 250° |
| 2026-04-26 23:15 | 41.15664 | 16.82475 | 944 ft | 148 kts | 250° |
| 2026-04-26 23:15 | 41.15302 | 16.81202 | 746 ft | 147 kts | 250° |
| 2026-04-26 23:15 | 41.14943 | 16.79933 | 537 ft | 146 kts | 250° |
| 2026-04-26 23:15 | 41.14589 | 16.78671 | 335 ft | 146 kts | 250° |
| 2026-04-26 23:16 | 41.14236 | 16.77414 | 151 ft | 145 kts | 250° |
| 2026-04-26 23:16 | 41.13912 | 16.76268 | 129 ft | 104 kts | 249° |
| 2026-04-26 23:16 | 41.13760 | 16.75737 | 139 ft | 29 kts | 249° |
| 2026-04-26 23:16 | 41.13696 | 16.75505 | 140 ft | 27 kts | 250° |
| 2026-04-26 23:17 | 41.13631 | 16.75277 | 140 ft | 27 kts | 249° |
| 2026-04-26 23:17 | 41.13564 | 16.75039 | 137 ft | 28 kts | 250° |
| 2026-04-26 23:17 | 41.13500 | 16.74814 | 139 ft | 21 kts | 248° |
| 2026-04-26 23:17 | 41.13449 | 16.74739 | 141 ft | 9 kts | 195° |
| 2026-04-26 23:18 | 41.13401 | 16.74762 | 145 ft | 6 kts | 136° |
| 2026-04-26 23:18 | 41.13375 | 16.74814 | 147 ft | 7 kts | 122° |
| 2026-04-26 23:18 | 41.13353 | 16.74862 | 147 ft | 0 kts | 120° |
| 2026-04-26 23:19 | 41.13352 | 16.74865 | 148 ft | 1 kts | 120° |
| 2026-04-26 23:19 | 41.13347 | 16.74883 | 148 ft | 4 kts | 108° |
| 2026-04-26 23:19 | 41.13350 | 16.74947 | 148 ft | 10 kts | 75° |
| 2026-04-26 23:19 | 41.13377 | 16.75049 | 148 ft | 13 kts | 69° |
| 2026-04-26 23:20 | 41.13412 | 16.75170 | 145 ft | 14 kts | 69° |
| 2026-04-26 23:20 | 41.13451 | 16.75308 | 142 ft | 18 kts | 69° |
| 2026-04-26 23:20 | 41.13494 | 16.75458 | 143 ft | 14 kts | 70° |
| 2026-04-26 23:20 | 41.13525 | 16.75569 | 139 ft | 12 kts | 69° |
| 2026-04-26 23:21 | 41.13558 | 16.75687 | 138 ft | 15 kts | 69° |
| 2026-04-26 23:21 | 41.13597 | 16.75823 | 138 ft | 17 kts | 69° |
| 2026-04-26 23:21 | 41.13640 | 16.75974 | 136 ft | 16 kts | 69° |
| 2026-04-26 23:21 | 41.13682 | 16.76123 | 136 ft | 18 kts | 69° |
| 2026-04-26 23:22 | 41.13720 | 16.76259 | 136 ft | 14 kts | 69° |
| 2026-04-26 23:22 | 41.13758 | 16.76390 | 135 ft | 16 kts | 69° |
| 2026-04-26 23:22 | 41.13786 | 16.76505 | 135 ft | 12 kts | 88° |
| 2026-04-26 23:22 | 41.13750 | 16.76557 | 136 ft | 7 kts | 161° |
| 2026-04-26 23:23 | 41.13698 | 16.76547 | 136 ft | 9 kts | 200° |
| 2026-04-26 23:23 | 41.13648 | 16.76494 | 136 ft | 10 kts | 239° |
| 2026-04-26 23:23 | 41.13621 | 16.76405 | 136 ft | 10 kts | 250° |
| 2026-04-26 23:23 | 41.13601 | 16.76370 | 136 ft | 4 kts | 199° |
| 2026-04-26 23:24 | 41.13576 | 16.76381 | 136 ft | 4 kts | 152° |
| 2026-04-26 23:24 | 41.13550 | 16.76396 | 136 ft | 4 kts | 159° |
| 2026-04-26 23:24 | 41.13545 | 16.76398 | 136 ft | 0 kts | 159° |